Time;durP1;ratioP1;P1;durP2;ratioP2;P2;SDS_P1;SDS_P2;PMS_P1;PMS_P2;Temp;Humidity;BMP_temperature;BMP_pressure;BME280_temperature;BME280_humidity;BME280_pressure;Samples;Min_cycle;Max_cycle;Signal;HPM_P1;HPM_P2
2021/11/04 00:10:36;;;;;;;0.20;0.20;;;7.70;96.30;6.60;100292.00;;;;31268345;28;20040;-69
2021/11/04 00:25:43;;;;;;;0.20;0.20;;;7.80;96.00;6.70;100280.00;;;;31368066;28;20544;-69
2021/11/04 00:40:46;;;;;;;0.55;0.55;;;7.80;95.40;6.50;100268.00;;;;31265500;28;20132;-68
2021/11/04 00:55:49;;;;;;;0.20;0.20;;;7.50;95.30;6.40;100266.00;;;;31251085;28;20129;-68
2021/11/04 01:10:50;;;;;;;0.20;0.20;;;7.40;95.80;6.30;100276.00;;;;31316653;28;20128;-68
2021/11/04 01:25:53;;;;;;;0.20;0.20;;;7.40;95.80;6.20;100262.00;;;;31236557;28;20041;-69
2021/11/04 01:40:54;;;;;;;0.20;0.20;;;7.20;95.60;6.00;100258.00;;;;31245829;28;20447;-69
2021/11/04 01:55:55;;;;;;;4.55;1.88;;;7.00;95.90;5.80;100257.00;;;;31253261;28;20041;-69
2021/11/04 02:11:13;;;;;;;0.30;0.30;;;7.10;96.20;5.70;100236.00;;;;31282879;28;20040;-69
2021/11/04 02:26:16;;;;;;;0.20;0.20;;;6.90;96.50;5.70;100259.00;;;;31355244;28;20049;-68
2021/11/04 02:41:19;;;;;;;0.20;0.20;;;7.00;96.20;5.90;100269.00;;;;31342226;28;20047;-68
2021/11/04 02:56:20;;;;;;;0.20;0.20;;;7.20;96.00;6.00;100259.00;;;;31322234;28;20434;-69
2021/11/04 03:11:29;;;;;;;0.20;0.20;;;7.20;96.30;6.10;100261.00;;;;31376842;28;20056;-68
2021/11/04 03:26:40;;;;;;;0.20;0.20;;;7.30;95.70;6.10;100284.00;;;;31249888;28;20047;-69
2021/11/04 03:41:51;;;;;;;0.20;0.20;;;7.30;95.90;6.30;100305.00;;;;31314751;28;20049;-69
2021/11/04 03:56:55;;;;;;;0.30;0.30;;;7.50;95.70;6.30;100308.00;;;;31225390;28;20045;-69
2021/11/04 04:12:03;;;;;;;0.20;0.20;;;6.70;96.50;6.30;100308.00;;;;31254341;28;20040;-69
2021/11/04 04:27:06;;;;;;;0.20;0.20;;;7.50;95.90;6.20;100301.00;;;;31249307;28;20195;-69
2021/11/04 04:42:08;;;;;;;0.10;0.10;;;7.30;95.40;6.10;100311.00;;;;31331373;28;20067;-68
2021/11/04 04:57:09;;;;;;;0.10;0.10;;;8.20;96.00;6.10;100316.00;;;;31368854;28;20052;-68
2021/11/04 05:12:16;;;;;;;0.20;0.20;;;7.40;95.20;6.20;100321.00;;;;31368607;28;20044;-68
2021/11/04 05:27:17;;;;;;;0.13;0.13;;;7.40;95.70;6.10;100323.00;;;;31362287;28;20045;-68
2021/11/04 05:42:18;;;;;;;0.30;0.30;;;7.20;95.60;6.00;100336.00;;;;31364322;28;20055;-69
2021/11/04 05:57:19;;;;;;;0.15;0.15;;;7.00;96.00;6.20;100363.00;;;;31372926;28;20076;-68
2021/11/04 06:12:20;;;;;;;0.20;0.20;;;7.30;96.00;6.30;100346.00;;;;31318858;28;20067;-68
2021/11/04 06:27:25;;;;;;;0.20;0.20;;;7.40;95.40;6.30;100365.00;;;;31295824;28;20041;-68
2021/11/04 06:42:25;;;;;;;0.20;0.20;;;6.70;94.80;6.30;100387.00;;;;31398053;28;20072;-69
2021/11/04 06:57:40;;;;;;;0.20;0.20;;;7.40;95.00;6.20;100401.00;;;;31394131;28;20503;-70
2021/11/04 07:12:47;;;;;;;0.20;0.20;;;7.40;94.80;6.20;100410.00;;;;31395883;28;20178;-70
2021/11/04 07:27:59;;;;;;;0.25;0.25;;;7.20;95.40;6.20;100407.00;;;;31400041;28;20502;-70
2021/11/04 07:43:00;;;;;;;0.20;0.20;;;7.40;94.80;6.20;100421.00;;;;31373041;28;20044;-70
2021/11/04 07:58:26;;;;;;;0.20;0.20;;;8.20;95.50;6.30;100435.00;;;;31396365;28;20037;-69
2021/11/04 08:13:35;;;;;;;0.53;0.53;;;7.40;94.90;6.20;100447.00;;;;31344508;28;20052;-70
2021/11/04 08:28:55;;;;;;;0.32;0.32;;;7.40;96.50;6.20;100427.00;;;;31388295;28;20043;-69
2021/11/04 08:43:57;;;;;;;0.20;0.20;;;7.50;95.40;6.40;100434.00;;;;31371152;28;20048;-70
2021/11/04 08:59:06;;;;;;;0.20;0.20;;;7.70;94.80;6.60;100454.00;;;;31368615;28;20040;-69
2021/11/04 09:14:13;;;;;;;0.22;0.22;;;7.80;95.80;6.80;100477.00;;;;31358499;28;20494;-69
2021/11/04 09:29:15;;;;;;;0.20;0.20;;;8.10;94.70;6.90;100482.00;;;;31356887;28;20051;-69
2021/11/04 09:44:19;;;;;;;4.25;1.65;;;8.00;94.20;7.00;100502.00;;;;31366248;28;20059;-68
2021/11/04 09:59:24;;;;;;;0.20;0.20;;;8.10;94.50;7.00;100519.00;;;;31236958;28;20041;-68
2021/11/04 10:14:32;;;;;;;0.20;0.20;;;8.10;95.00;7.00;100545.00;;;;31263208;28;20128;-68
2021/11/04 10:29:37;;;;;;;0.40;0.40;;;8.10;94.20;7.00;100560.00;;;;31245538;28;20207;-68
2021/11/04 10:44:38;;;;;;;0.20;0.20;;;8.20;94.10;7.10;100549.00;;;;31254534;28;20138;-69
2021/11/04 10:59:44;;;;;;;0.20;0.20;;;8.20;94.50;7.20;100562.00;;;;31253391;28;20152;-69
2021/11/04 11:14:51;;;;;;;;;;;8.30;94.20;7.30;100571.00;;;;31243584;28;20045;-69
2021/11/04 11:29:53;;;;;;;0.20;0.20;;;8.50;93.80;7.50;100586.00;;;;31275035;28;20429;-69
2021/11/04 11:45:20;;;;;;;0.30;0.30;;;8.80;93.80;7.80;100593.00;;;;31269038;28;20088;-68
2021/11/04 12:01:04;;;;;;;0.40;0.40;;;8.80;93.60;7.90;100591.00;;;;31251462;28;20037;-68
2021/11/04 12:16:22;;;;;;;0.10;0.10;;;8.90;93.50;8.20;100592.00;;;;31267170;28;20037;-68
2021/11/04 12:31:26;;;;;;;0.20;0.20;;;9.50;92.80;8.60;100594.00;;;;31277454;28;20669;-69
2021/11/04 12:46:31;;;;;;;0.82;0.82;;;9.80;92.00;9.00;100609.00;;;;31287935;28;20063;-69
2021/11/04 13:02:03;;;;;;;0.37;0.37;;;8.30;91.30;9.20;100632.00;;;;31365474;28;20702;-69
2021/11/04 13:17:13;;;;;;;0.20;0.20;;;10.30;92.30;9.40;100645.00;;;;31381399;28;20392;-69
2021/11/04 13:32:14;;;;;;;0.20;0.20;;;10.50;91.50;9.40;100645.00;;;;31376066;28;20752;-69
2021/11/04 13:47:15;;;;;;;0.20;0.20;;;10.50;91.60;9.50;100656.00;;;;31339406;28;20226;-69
2021/11/04 14:02:23;;;;;;;0.20;0.20;;;10.50;91.20;9.60;100665.00;;;;31369410;28;20048;-69
2021/11/04 14:17:30;;;;;;;0.20;0.20;;;10.50;91.70;9.50;100669.00;;;;31374134;28;20097;-69
2021/11/04 14:32:34;;;;;;;0.30;0.30;;;10.50;91.50;9.50;100683.00;;;;31364433;28;20041;-69
2021/11/04 14:47:37;;;;;;;0.20;0.20;;;10.70;91.10;9.70;100694.00;;;;31367324;28;20052;-68
2021/11/04 15:02:39;;;;;;;0.20;0.20;;;10.70;90.50;9.70;100717.00;;;;31399824;28;20041;-69
2021/11/04 15:17:42;;;;;;;0.10;0.10;;;10.70;91.00;9.50;100734.00;;;;31395562;28;20724;-69
2021/11/04 15:32:45;;;;;;;0.20;0.20;;;10.50;90.90;9.40;100752.00;;;;31398392;28;20602;-69
2021/11/04 15:47:49;;;;;;;0.30;0.30;;;10.30;91.00;9.10;100771.00;;;;31344609;28;21241;-70
2021/11/04 16:02:51;;;;;;;0.20;0.20;;;9.80;91.70;8.60;100811.00;;;;31142431;28;20056;-70
2021/11/04 16:17:56;;;;;;;0.25;0.25;;;9.70;92.20;8.20;100828.00;;;;31134530;28;20687;-69
2021/11/04 16:32:57;;;;;;;0.13;0.13;;;9.20;92.50;7.90;100846.00;;;;31132131;28;20553;-70
2021/11/04 16:47:59;;;;;;;0.20;0.20;;;8.90;92.70;7.70;100852.00;;;;31130325;28;20045;-70
2021/11/04 17:03:03;;;;;;;0.30;0.30;;;8.90;93.30;7.30;100873.00;;;;31116578;28;20042;-70
2021/11/04 17:18:09;;;;;;;6.82;1.00;;;8.60;92.60;6.90;100893.00;;;;31140434;28;20060;-70
2021/11/04 17:33:12;;;;;;;0.30;0.30;;;8.00;92.20;6.70;100913.00;;;;31103597;28;20054;-70
2021/11/04 17:48:14;;;;;;;0.30;0.30;;;7.70;91.90;6.40;100935.00;;;;31142136;28;20045;-70
2021/11/04 18:03:16;;;;;;;0.20;0.20;;;7.70;92.40;6.50;100946.00;;;;31126434;28;20052;-70
2021/11/04 18:18:17;;;;;;;0.13;0.13;;;7.60;92.80;6.60;100986.00;;;;31087802;28;20053;-70
2021/11/04 18:33:25;;;;;;;0.20;0.20;;;7.90;93.00;6.80;100994.00;;;;31138254;28;20056;-70
2021/11/04 18:48:27;;;;;;;0.20;0.20;;;8.50;93.20;6.90;101000.00;;;;31187484;28;20048;-69
2021/11/04 19:03:28;;;;;;;0.52;0.52;;;8.10;93.80;6.90;101027.00;;;;31265700;28;20600;-70
2021/11/04 19:18:29;;;;;;;0.20;0.20;;;8.00;93.80;6.70;101039.00;;;;31273976;28;20069;-69
2021/11/04 19:33:31;;;;;;;0.70;0.70;;;7.70;93.80;6.30;101064.00;;;;31252528;28;20053;-69
2021/11/04 19:48:32;;;;;;;0.63;0.63;;;7.40;93.90;6.20;101085.00;;;;31292495;28;20079;-69
2021/11/04 20:03:33;;;;;;;0.38;0.38;;;7.40;94.40;6.30;101101.00;;;;31381603;28;20072;-69
2021/11/04 20:18:37;;;;;;;0.20;0.20;;;7.50;93.80;6.10;101125.00;;;;31373295;28;21010;-68
2021/11/04 20:33:38;;;;;;;0.40;0.40;;;7.30;93.90;6.00;101144.00;;;;31380957;28;20872;-69
2021/11/04 20:48:39;;;;;;;0.25;0.25;;;7.20;95.00;6.10;101164.00;;;;31364951;28;20050;-69
2021/11/04 21:03:41;;;;;;;0.10;0.10;;;7.40;95.10;6.10;101176.00;;;;31359432;28;20044;-69
2021/11/04 21:18:43;;;;;;;0.20;0.20;;;7.40;95.00;5.90;101210.00;;;;31375278;28;20480;-69
2021/11/04 21:33:47;;;;;;;0.20;0.20;;;7.00;93.90;5.60;101220.00;;;;31380439;28;20067;-69
2021/11/04 21:48:50;;;;;;;0.25;0.25;;;6.80;94.10;5.40;101227.00;;;;31352324;28;20048;-69
2021/11/04 22:03:53;;;;;;;0.22;0.22;;;6.70;94.60;5.40;101250.00;;;;31366715;28;20040;-69
2021/11/04 22:18:56;;;;;;;0.20;0.20;;;6.60;94.80;5.50;101259.00;;;;31362018;28;20045;-69
2021/11/04 22:34:00;;;;;;;0.25;0.25;;;6.80;95.30;5.60;101279.00;;;;31357905;28;20507;-69
2021/11/04 22:49:01;;;;;;;0.20;0.20;;;6.80;95.40;5.70;101295.00;;;;31347747;28;20588;-70
2021/11/04 23:04:22;;;;;;;0.20;0.20;;;6.90;95.70;5.80;101316.00;;;;31373763;28;20080;-69
2021/11/04 23:36:08;;;;;;;0.20;0.20;;;6.80;95.10;5.50;101356.00;;;;31380212;28;20458;-69
2021/11/04 23:51:10;;;;;;;0.23;0.23;;;6.70;95.30;5.40;101371.00;;;;31378230;28;20056;-69
